createdAt,value
2023-04-18T00:00:33.793Z,11.3
2023-04-18T00:06:17.694Z,11.6
2023-04-18T00:12:01.649Z,11.2
2023-04-18T00:17:46.665Z,11.4
2023-04-18T00:23:30.681Z,11.7
2023-04-18T00:29:14.526Z,11.8
2023-04-18T00:34:58.546Z,11.4
2023-04-18T00:40:42.774Z,11.8
2023-04-18T00:46:26.758Z,12
2023-04-18T00:52:11.002Z,11.8
2023-04-18T00:57:55.494Z,12
2023-04-18T01:03:41.033Z,11.6
2023-04-18T01:09:25.721Z,11.4
2023-04-18T01:15:10.466Z,12.4
2023-04-18T01:20:55.320Z,11.6
2023-04-18T01:26:41.101Z,11.9
2023-04-18T01:32:28.357Z,11.3
2023-04-18T01:38:12.535Z,11.5
2023-04-18T01:43:57.446Z,11.8
2023-04-18T01:49:41.499Z,11.4
2023-04-18T01:55:27.648Z,11.3
2023-04-18T02:01:11.890Z,11.4
2023-04-18T02:06:56.169Z,11.3
2023-04-18T02:12:40.053Z,10.8
2023-04-18T02:18:24.237Z,11.1
2023-04-18T02:24:08.479Z,11
2023-04-18T02:29:52.623Z,11.4
2023-04-18T02:35:36.586Z,10.5
2023-04-18T02:41:20.576Z,11.1
2023-04-18T02:47:04.522Z,11.1
2023-04-18T02:52:48.394Z,11.2
2023-04-18T02:58:32.599Z,10.9
2023-04-18T03:04:17.309Z,11
2023-04-18T03:10:01.364Z,10.1
2023-04-18T03:15:45.696Z,10.8
2023-04-18T03:21:29.647Z,10.3
2023-04-18T03:27:15.659Z,10.3
2023-04-18T03:33:00.092Z,10.1
2023-04-18T03:38:44.286Z,10.3
2023-04-18T03:44:28.202Z,10.6
2023-04-18T03:50:12.941Z,9.9
2023-04-18T03:55:56.920Z,10.2
2023-04-18T04:01:41.127Z,10.2
2023-04-18T04:07:25.430Z,10.3
2023-04-18T04:13:09.300Z,10.3
2023-04-18T04:18:53.252Z,10.5
2023-04-18T04:24:37.347Z,9.7
2023-04-18T04:30:21.550Z,9.7
2023-04-18T04:36:05.598Z,9.8
2023-04-18T04:41:49.508Z,10.5
2023-04-18T04:47:33.522Z,9.3
2023-04-18T04:53:17.347Z,9.2
2023-04-18T04:59:01.646Z,9.3
2023-04-18T05:04:47.602Z,9.5
2023-04-18T05:10:31.622Z,9.3
2023-04-18T05:16:16.918Z,8.9
2023-04-18T05:22:01.764Z,9.3
2023-04-18T05:27:45.874Z,9.4
2023-04-18T05:33:29.864Z,8.7
2023-04-18T05:39:13.837Z,8.7
2023-04-18T05:44:57.914Z,9
2023-04-18T05:50:42.103Z,9
2023-04-18T05:56:26.230Z,8.9
2023-04-18T06:02:10.453Z,9
2023-04-18T06:07:54.702Z,8.9
2023-04-18T06:13:38.890Z,8.6
2023-04-18T06:19:22.853Z,8.3
2023-04-18T06:25:07.156Z,9
2023-04-18T06:30:52.309Z,8.8
2023-04-18T06:36:36.138Z,8.9
2023-04-18T06:42:23.686Z,8.9
2023-04-18T06:48:08.727Z,8.4
2023-04-18T06:53:52.948Z,8.4
2023-04-18T06:59:37.132Z,8.3
2023-04-18T07:05:21.400Z,8.8
2023-04-18T07:11:05.584Z,8.4
2023-04-18T07:16:50.854Z,8.8
2023-04-18T07:22:35.034Z,8.8
2023-04-18T07:28:18.764Z,8.2
2023-04-18T07:34:03.725Z,8
2023-04-18T07:39:47.791Z,7.9
2023-04-18T07:45:31.770Z,8.6
2023-04-18T07:51:15.863Z,8.2
2023-04-18T07:57:01.958Z,8.3
2023-04-18T08:02:47.393Z,7.4
2023-04-18T08:08:31.502Z,8.1
2023-04-18T08:14:16.388Z,7.4
2023-04-18T08:20:00.310Z,7.4
2023-04-18T08:25:44.499Z,7.4
2023-04-18T08:31:28.958Z,6.8
2023-04-18T08:37:12.988Z,6.5
2023-04-18T08:42:59.449Z,6.7
2023-04-18T08:48:43.627Z,6.5
2023-04-18T08:54:29.751Z,6.3
2023-04-18T09:00:14.866Z,6
2023-04-18T09:06:11.694Z,5.9
2023-04-18T09:12:01.028Z,6.3
2023-04-18T09:17:46.117Z,6.1
2023-04-18T09:23:30.227Z,6.1
2023-04-18T09:29:14.572Z,5.9
2023-04-18T09:35:01.012Z,6
2023-04-18T09:40:48.832Z,5.9
2023-04-18T09:46:33.452Z,5.5
2023-04-18T09:52:20.047Z,5.7
2023-04-18T09:58:06.043Z,5.6
2023-04-18T10:03:52.730Z,5.7
2023-04-18T10:09:37.314Z,5.4
2023-04-18T10:15:23.152Z,5.9
2023-04-18T10:21:07.786Z,5.8
2023-04-18T10:26:52.277Z,4.8
2023-04-18T10:32:37.252Z,4.8
2023-04-18T10:38:24.841Z,5.4
2023-04-18T10:44:19.190Z,5.3
2023-04-18T10:50:08.536Z,5.2
2023-04-18T10:55:56.550Z,5.2
2023-04-18T11:01:45.679Z,5.3
2023-04-18T11:07:38.875Z,4.8
2023-04-18T11:13:22.971Z,4.8
2023-04-18T11:19:12.005Z,5.1
2023-04-18T11:24:59.454Z,4.7
2023-04-18T11:30:46.904Z,4.7
2023-04-18T11:36:31.225Z,4.6
2023-04-18T11:42:15.537Z,4.7
2023-04-18T11:48:01.949Z,4.8
2023-04-18T11:53:46.869Z,5.5
2023-04-18T11:59:30.873Z,5.1
2023-04-18T12:05:16.575Z,5.3
2023-04-18T12:11:01.422Z,5.2
2023-04-18T12:16:45.484Z,5
2023-04-18T12:22:45.654Z,4.7
2023-04-18T12:28:29.602Z,5
2023-04-18T12:34:14.590Z,5.1
2023-04-18T12:39:58.970Z,5.3
2023-04-18T12:45:43.146Z,5.7
2023-04-18T12:51:27.214Z,5.9
2023-04-18T12:57:11.702Z,5.2
2023-04-18T13:02:56.310Z,5.2
2023-04-18T13:08:40.702Z,5.5
2023-04-18T13:14:24.789Z,5.3
2023-04-18T13:20:10.107Z,4.6
2023-04-18T13:25:54.286Z,5.1
2023-04-18T13:31:38.404Z,5
2023-04-18T13:37:22.646Z,4.8
2023-04-18T13:43:06.562Z,4.9
2023-04-18T13:48:51.544Z,4.6
2023-04-18T13:54:35.792Z,4.6
2023-04-18T14:00:20.734Z,4.1
2023-04-18T14:06:04.935Z,4.3
2023-04-18T14:11:49.050Z,4.3
2023-04-18T14:17:33.125Z,4.5
2023-04-18T14:23:17.227Z,4.3
2023-04-18T14:29:01.238Z,4.2
2023-04-18T14:34:45.254Z,4.3
2023-04-18T14:40:30.845Z,4.2
2023-04-18T14:46:19.447Z,4.1
2023-04-18T14:52:03.657Z,4.1
2023-04-18T14:57:47.954Z,4.1
2023-04-18T15:03:32.543Z,4.2
2023-04-18T15:09:16.958Z,3.8
2023-04-18T15:15:01.146Z,4
2023-04-18T15:20:45.140Z,4
2023-04-18T15:26:30.448Z,4
2023-04-18T15:32:17.914Z,3.8
2023-04-18T15:38:02.060Z,3.9
2023-04-18T15:43:46.050Z,3.9
2023-04-18T15:49:30.179Z,4
2023-04-18T15:55:16.120Z,3.8
2023-04-18T16:01:00.228Z,4.1
2023-04-18T16:06:44.252Z,4
2023-04-18T16:12:28.210Z,3.9
2023-04-18T16:18:12.446Z,4.1
2023-04-18T16:23:56.454Z,5.2
2023-04-18T16:29:40.277Z,6.3
2023-04-18T16:35:24.310Z,6.9
2023-04-18T16:41:08.448Z,7.7
2023-04-18T16:46:52.834Z,7.6
2023-04-18T16:52:36.765Z,18.2
2023-04-18T16:58:20.499Z,16.6
2023-04-18T17:04:04.964Z,15.5
2023-04-18T17:09:50.067Z,17.3
2023-04-18T17:15:34.166Z,17.1
2023-04-18T17:21:18.267Z,16.1
2023-04-18T17:27:02.041Z,15.6
2023-04-18T17:32:46.879Z,15.3
2023-04-18T17:38:30.882Z,14.5
2023-04-18T17:44:15.463Z,14.2
2023-04-18T17:49:59.618Z,13.3
2023-04-18T17:55:43.813Z,12.2
2023-04-18T18:01:27.971Z,11.5
2023-04-18T18:07:12.078Z,10.5
2023-04-18T18:12:56.203Z,10.6
2023-04-18T18:18:40.280Z,9.5
2023-04-18T18:24:24.249Z,9.5
2023-04-18T18:30:09.094Z,8.1
2023-04-18T18:35:52.815Z,9.1
2023-04-18T18:41:37.168Z,8.4
2023-04-18T18:47:21.511Z,8.5
2023-04-18T18:53:05.531Z,8.2
2023-04-18T18:58:49.573Z,8.3
2023-04-18T19:04:33.868Z,7.9
2023-04-18T19:10:18.134Z,8
2023-04-18T19:16:02.348Z,8.1
2023-04-18T19:21:46.560Z,8
2023-04-18T19:27:30.484Z,7.5
2023-04-18T19:33:14.617Z,7.8
2023-04-18T19:38:58.646Z,7.7
2023-04-18T19:44:43.919Z,7.9
2023-04-18T19:50:27.961Z,7.7
2023-04-18T19:56:11.991Z,7.8
2023-04-18T20:01:57.844Z,7.8
2023-04-18T20:07:47.100Z,8.1
2023-04-18T20:13:31.114Z,8.3
2023-04-18T20:19:17.176Z,7.7
2023-04-18T20:25:01.386Z,8.1
2023-04-18T20:30:45.467Z,8.3
2023-04-18T20:36:29.542Z,8.6
2023-04-18T20:42:13.531Z,8.4
2023-04-18T20:47:57.894Z,9.1
2023-04-18T20:53:41.950Z,8.3
2023-04-18T20:59:25.986Z,9.1
2023-04-18T21:05:10.479Z,9.1
2023-04-18T21:10:55.356Z,8.9
2023-04-18T21:16:39.722Z,8.9
2023-04-18T21:22:23.945Z,9.1
2023-04-18T21:28:08.041Z,9.2
2023-04-18T21:33:53.476Z,8.3
2023-04-18T21:39:37.386Z,9.5
2023-04-18T21:45:21.465Z,8.7
2023-04-18T21:51:05.721Z,9
2023-04-18T21:56:49.712Z,8.8
2023-04-18T22:02:34.358Z,8.9
2023-04-18T22:08:18.749Z,9.1
2023-04-18T22:14:02.896Z,9.4
2023-04-18T22:19:47.108Z,9.3
2023-04-18T22:25:31.047Z,8.8
2023-04-18T22:31:15.278Z,8.8
2023-04-18T22:36:59.687Z,8.6
2023-04-18T22:42:43.794Z,8.6
2023-04-18T22:48:27.763Z,8.9
2023-04-18T22:54:11.764Z,9.4
2023-04-18T22:59:56.352Z,9
2023-04-18T23:05:40.635Z,8.7
2023-04-18T23:11:24.672Z,8.6
2023-04-18T23:17:08.737Z,9
2023-04-18T23:22:52.963Z,9
2023-04-18T23:28:37.233Z,9
2023-04-18T23:34:21.431Z,9.4
2023-04-18T23:40:05.491Z,9
2023-04-18T23:45:51.015Z,9.1
2023-04-18T23:51:35.098Z,9.4
2023-04-18T23:57:19.137Z,9.1
